Time;durP1;ratioP1;P1;durP2;ratioP2;P2;SDS_P1;SDS_P2;PMS_P1;PMS_P2;Temp;Humidity;BMP_temperature;BMP_pressure;BME280_temperature;BME280_humidity;BME280_pressure;Samples;Min_cycle;Max_cycle;Signal;HPM_P1;HPM_P2
2022/12/06 07:45:09;;;;;;;7.00;4.63;;;3.60;99.90;;;;;;4883643;29;20140;-82
2022/12/06 07:47:38;;;;;;;9.00;4.65;;;3.60;99.90;;;;;;4899508;29;20059;-82
2022/12/06 07:50:07;;;;;;;7.85;4.65;;;3.60;99.90;;;;;;4897353;29;20049;-80
2022/12/06 07:52:41;;;;;;;8.18;5.72;;;3.60;99.90;;;;;;4897977;29;20064;-82
2022/12/06 07:55:10;;;;;;;8.65;5.70;;;3.60;99.90;;;;;;4893035;29;20425;-82
2022/12/06 07:57:37;;;;;;;12.77;6.90;;;3.60;99.90;;;;;;4904374;29;20060;-80
2022/12/06 08:00:11;;;;;;;9.10;6.47;;;3.60;99.90;;;;;;4902974;29;20063;-81
2022/12/06 08:02:39;;;;;;;13.40;5.87;;;3.60;99.90;;;;;;4885965;29;20410;-81
2022/12/06 08:05:05;;;;;;;9.60;6.00;;;3.60;99.90;;;;;;4898742;29;20805;-81
2022/12/06 08:07:32;;;;;;;8.65;5.72;;;3.50;99.90;;;;;;4885433;29;20521;-81
2022/12/06 08:09:59;;;;;;;11.18;6.28;;;3.50;99.90;;;;;;4894732;29;20056;-81
2022/12/06 08:12:30;;;;;;;11.07;7.90;;;3.50;99.90;;;;;;4898807;29;20131;-81
2022/12/06 08:14:58;;;;;;;11.82;7.90;;;3.50;99.90;;;;;;4898515;29;20136;-81
2022/12/06 08:17:26;;;;;;;8.38;5.93;;;3.50;99.90;;;;;;4893704;29;20045;-80
2022/12/06 08:19:53;;;;;;;7.03;5.53;;;3.50;99.90;;;;;;4890522;29;20085;-81
2022/12/06 08:22:20;;;;;;;7.00;5.20;;;3.50;99.90;;;;;;4890996;29;20151;-80
2022/12/06 08:24:46;;;;;;;9.68;6.25;;;3.40;99.90;;;;;;4903143;29;20032;-81
2022/12/06 08:27:13;;;;;;;12.90;7.63;;;3.40;99.90;;;;;;4913209;29;20104;-79
2022/12/06 08:29:40;;;;;;;16.02;9.13;;;3.40;99.90;;;;;;4914267;29;20040;-81
2022/12/06 08:32:06;;;;;;;15.73;9.20;;;3.40;99.90;;;;;;4918320;29;20044;-80
2022/12/06 08:34:33;;;;;;;16.70;9.70;;;3.40;99.90;;;;;;4926067;29;20087;-81
2022/12/06 08:37:00;;;;;;;16.50;10.80;;;3.30;99.90;;;;;;4916286;29;20066;-80
2022/12/06 08:39:29;;;;;;;15.68;9.90;;;3.30;99.90;;;;;;4898853;29;20499;-80
2022/12/06 08:41:58;;;;;;;14.30;8.95;;;3.30;99.90;;;;;;4897690;29;20053;-81
2022/12/06 08:44:27;;;;;;;16.98;10.80;;;3.30;99.90;;;;;;4897600;29;20063;-81
2022/12/06 08:46:55;;;;;;;20.42;12.38;;;3.30;99.90;;;;;;4891163;29;20148;-81
2022/12/06 08:49:23;;;;;;;19.83;12.25;;;3.20;99.90;;;;;;4895138;29;20045;-81
2022/12/06 08:51:50;;;;;;;15.55;10.50;;;3.30;99.90;;;;;;4895358;29;20614;-81
2022/12/06 08:54:19;;;;;;;16.85;10.38;;;3.20;99.90;;;;;;4883616;29;20067;-79
2022/12/06 08:56:46;;;;;;;14.90;10.23;;;3.20;99.90;;;;;;4885976;29;20068;-82
2022/12/06 08:59:13;;;;;;;18.02;10.63;;;3.20;99.90;;;;;;4888843;29;20073;-81
2022/12/06 09:01:40;;;;;;;21.55;10.77;;;3.30;99.90;;;;;;4899491;29;20053;-82
2022/12/06 09:04:08;;;;;;;15.90;10.95;;;3.30;99.90;;;;;;4899499;29;20049;-81
2022/12/06 09:06:40;;;;;;;16.85;10.13;;;3.30;99.90;;;;;;4880204;29;20634;-81
2022/12/06 09:09:08;;;;;;;18.40;10.82;;;3.30;99.90;;;;;;4859794;29;20053;-81
2022/12/06 09:11:36;;;;;;;19.23;10.98;;;3.30;99.90;;;;;;4855563;29;20049;-81
2022/12/06 09:14:02;;;;;;;16.55;11.45;;;3.30;99.90;;;;;;4854926;29;20058;-81
2022/12/06 09:16:30;;;;;;;16.88;11.85;;;3.40;99.90;;;;;;4859543;29;20056;-81
2022/12/06 09:18:56;;;;;;;18.42;11.95;;;3.40;99.90;;;;;;4861005;29;20046;-80
2022/12/06 09:21:27;;;;;;;17.17;11.27;;;3.40;99.90;;;;;;4864182;29;20057;-81
2022/12/06 09:23:55;;;;;;;15.30;10.20;;;3.40;99.90;;;;;;4860066;29;20057;-79
2022/12/06 09:26:23;;;;;;;18.33;12.45;;;3.50;99.90;;;;;;4858477;29;20128;-80
2022/12/06 09:28:50;;;;;;;16.38;11.68;;;3.40;99.90;;;;;;4865410;29;20053;-81
2022/12/06 09:31:18;;;;;;;16.23;11.25;;;3.40;99.90;;;;;;4861374;29;20046;-81
2022/12/06 09:33:45;;;;;;;17.42;10.73;;;3.50;99.90;;;;;;4862543;29;20045;-81
2022/12/06 09:36:35;;;;;;;15.30;10.10;;;3.50;99.90;;;;;;4857550;29;20089;-80
2022/12/06 09:39:13;;;;;;;16.00;10.85;;;3.60;99.90;;;;;;4859886;29;20055;-81
2022/12/06 09:41:55;;;;;;;19.75;12.73;;;3.60;99.90;;;;;;4856079;29;20042;-81
2022/12/06 09:44:41;;;;;;;17.50;11.30;;;3.60;99.90;;;;;;4851965;29;20053;-79
2022/12/06 09:47:17;;;;;;;21.50;11.65;;;3.60;99.90;;;;;;4861084;29;20511;-81
2022/12/06 09:50:04;;;;;;;20.75;11.05;;;3.60;99.90;;;;;;4857621;29;20054;-79
2022/12/06 09:53:04;;;;;;;18.58;12.07;;;3.60;99.90;;;;;;4861411;29;20053;-81
2022/12/06 09:55:50;;;;;;;18.73;12.50;;;3.70;99.90;;;;;;4859907;29;20738;-81
2022/12/06 09:58:48;;;;;;;18.88;10.57;;;3.70;99.90;;;;;;4860215;29;20052;-81
2022/12/06 10:01:39;;;;;;;16.25;11.20;;;3.80;99.90;;;;;;4857078;29;20064;-81
2022/12/06 10:04:21;;;;;;;19.63;11.55;;;3.80;99.90;;;;;;4863066;29;20609;-82
2022/12/06 10:07:02;;;;;;;16.73;10.90;;;3.80;99.90;;;;;;4860251;29;20065;-81
2022/12/06 10:10:00;;;;;;;18.23;10.88;;;3.80;99.90;;;;;;4857706;29;20089;-80
2022/12/06 10:13:01;;;;;;;16.65;11.23;;;3.90;99.90;;;;;;4863830;29;20156;-81
2022/12/06 10:15:51;;;;;;;17.45;11.82;;;3.90;99.90;;;;;;4859412;29;20349;-80
2022/12/06 10:18:21;;;;;;;;;;;3.90;99.90;;;;;;4859092;29;20056;-81
2022/12/06 10:20:56;;;;;;;20.02;11.57;;;3.90;99.90;;;;;;4862630;29;19991;-80
2022/12/06 10:23:37;;;;;;;19.67;11.88;;;4.00;99.90;;;;;;4863203;29;20061;-80
2022/12/06 10:26:11;;;;;;;17.15;10.77;;;4.00;99.90;;;;;;4859511;29;20053;-80
2022/12/06 10:28:45;;;;;;;19.10;12.38;;;4.00;99.90;;;;;;4857140;29;20070;-81
2022/12/06 10:31:41;;;;;;;18.92;12.23;;;4.00;99.90;;;;;;4855809;29;20049;-81
2022/12/06 10:34:18;;;;;;;18.95;11.45;;;4.10;99.90;;;;;;4863966;29;20072;-80
2022/12/06 10:37:03;;;;;;;17.73;11.65;;;4.10;99.90;;;;;;4858049;29;20132;-78
2022/12/06 10:39:38;;;;;;;16.00;10.82;;;4.10;99.90;;;;;;4857637;29;20046;-79
2022/12/06 10:42:34;;;;;;;17.17;11.00;;;4.10;99.90;;;;;;4855280;29;20053;-79
2022/12/06 10:47:02;;;;;;;18.00;12.07;;;4.10;99.90;;;;;;4855165;29;20050;-80
2022/12/06 10:47:53;;;;;;;;;;;4.20;99.90;;;;;;4852443;29;20083;-79
2022/12/06 10:50:26;;;;;;;19.42;11.70;;;4.20;99.90;;;;;;4854748;29;19924;-80
2022/12/06 10:52:56;;;;;;;19.02;11.55;;;4.20;99.90;;;;;;4850766;29;20472;-80
2022/12/06 10:55:34;;;;;;;16.70;11.57;;;4.30;99.90;;;;;;4853177;29;20060;-80
2022/12/06 10:58:39;;;;;;;17.65;11.68;;;4.30;99.90;;;;;;4852169;29;20050;-80
2022/12/06 11:01:12;;;;;;;15.43;11.57;;;4.30;99.90;;;;;;4860507;29;20128;-79
2022/12/06 11:04:01;;;;;;;17.17;11.70;;;4.30;99.90;;;;;;4864512;29;20127;-79
2022/12/06 11:06:44;;;;;;;18.33;11.93;;;4.30;99.90;;;;;;4853976;29;20054;-81
2022/12/06 11:09:42;;;;;;;17.02;11.45;;;4.30;99.90;;;;;;4862036;29;20690;-80
2022/12/06 11:12:35;;;;;;;17.02;12.15;;;4.40;99.90;;;;;;4862817;29;20130;-80
2022/12/06 11:15:04;;;;;;;18.10;12.20;;;4.40;99.90;;;;;;4854382;29;20059;-80
2022/12/06 11:17:41;;;;;;;19.60;12.63;;;4.40;99.90;;;;;;4852299;29;20054;-79
2022/12/06 11:20:24;;;;;;;19.50;12.27;;;4.40;99.90;;;;;;4853921;29;20160;-79
2022/12/06 11:23:05;;;;;;;17.85;11.32;;;4.50;99.90;;;;;;4866397;29;20092;-79
2022/12/06 11:26:03;;;;;;;16.85;11.80;;;4.50;99.90;;;;;;4853145;29;20068;-81
2022/12/06 11:28:35;;;;;;;15.25;11.10;;;4.50;99.90;;;;;;4848961;29;20054;-80
2022/12/06 11:31:11;;;;;;;18.90;12.77;;;4.50;99.90;;;;;;4854642;29;20056;-80
2022/12/06 11:33:38;;;;;;;21.23;12.85;;;4.60;99.90;;;;;;4853331;29;20114;-81
2022/12/06 11:36:06;;;;;;;20.30;12.52;;;4.60;99.90;;;;;;4856197;29;20475;-81
2022/12/06 11:38:37;;;;;;;18.17;11.93;;;4.60;99.90;;;;;;4856440;29;20534;-81
2022/12/06 11:41:09;;;;;;;21.15;13.30;;;4.60;99.90;;;;;;4858894;29;20088;-80
2022/12/06 11:43:37;;;;;;;17.23;11.65;;;4.60;99.90;;;;;;4861798;29;20061;-82
2022/12/06 11:46:05;;;;;;;16.73;12.27;;;4.70;99.90;;;;;;4861249;29;20083;-81
2022/12/06 11:48:34;;;;;;;18.58;11.95;;;4.70;99.90;;;;;;4854281;29;20598;-81
2022/12/06 11:51:01;;;;;;;19.20;12.32;;;4.70;99.90;;;;;;4858092;29;20066;-82
2022/12/06 11:53:53;;;;;;;17.33;13.00;;;4.80;99.90;;;;;;4856538;29;20049;-81
2022/12/06 11:56:23;;;;;;;16.52;11.52;;;4.80;99.90;;;;;;4858359;29;20053;-80
2022/12/06 11:59:24;;;;;;;18.13;11.40;;;4.80;99.90;;;;;;4853928;29;20136;-81
2022/12/06 12:01:54;;;;;;;17.35;11.00;;;4.80;99.90;;;;;;4867143;29;20144;-81
2022/12/06 12:04:51;;;;;;;19.85;12.27;;;4.90;99.90;;;;;;4853537;29;20076;-80
2022/12/06 12:07:23;;;;;;;17.35;11.68;;;4.90;99.90;;;;;;4854635;29;20136;-80
2022/12/06 12:09:58;;;;;;;19.10;11.43;;;4.90;99.90;;;;;;4857774;29;20083;-82
2022/12/06 12:15:32;;;;;;;19.83;11.73;;;4.90;99.90;;;;;;4832813;29;20049;-81
2022/12/06 12:18:00;;;;;;;19.45;12.52;;;4.90;99.90;;;;;;4862177;29;20393;-81
2022/12/06 12:20:32;;;;;;;21.38;11.82;;;4.90;99.90;;;;;;4858302;29;20523;-80
2022/12/06 12:23:02;;;;;;;18.38;11.63;;;4.90;99.90;;;;;;4859653;29;20059;-80
2022/12/06 12:25:35;;;;;;;15.52;11.05;;;4.90;99.90;;;;;;4854429;29;20113;-82
2022/12/06 12:28:26;;;;;;;18.45;10.50;;;5.00;99.90;;;;;;4856873;29;20574;-81
2022/12/06 12:30:55;;;;;;;15.70;10.35;;;5.00;99.90;;;;;;4853139;29;20058;-81
2022/12/06 12:33:23;;;;;;;16.08;10.73;;;5.10;99.90;;;;;;4855571;29;20109;-79
2022/12/06 12:36:01;;;;;;;16.98;10.85;;;5.10;99.90;;;;;;4856223;29;20052;-82
2022/12/06 12:39:00;;;;;;;17.95;10.95;;;5.10;99.90;;;;;;4852050;29;20050;-81
2022/12/06 12:41:38;;;;;;;16.63;10.50;;;5.10;99.90;;;;;;4835110;29;20137;-81
2022/12/06 12:44:14;;;;;;;15.30;10.55;;;5.10;99.90;;;;;;4849934;29;20471;-80
2022/12/06 12:47:05;;;;;;;15.82;10.55;;;5.10;99.90;;;;;;4854898;29;20056;-81
2022/12/06 12:49:34;;;;;;;16.80;10.73;;;5.20;99.90;;;;;;4851404;29;20053;-81
2022/12/06 12:52:23;;;;;;;15.55;10.27;;;5.20;99.90;;;;;;4858295;29;20054;-80
2022/12/06 12:55:16;;;;;;;15.48;10.00;;;5.20;99.90;;;;;;4861786;29;20674;-80
2022/12/06 12:57:45;;;;;;;21.08;11.98;;;5.20;99.90;;;;;;4856403;29;20576;-81
2022/12/06 13:00:17;;;;;;;15.27;9.70;;;5.20;99.90;;;;;;4856482;29;20053;-81
2022/12/06 13:02:49;;;;;;;15.32;10.30;;;5.30;99.90;;;;;;4857446;29;20622;-80
2022/12/06 13:05:21;;;;;;;14.93;10.50;;;5.20;99.90;;;;;;4860582;29;20088;-81
2022/12/06 13:08:18;;;;;;;19.15;11.68;;;5.20;99.90;;;;;;4855352;29;20049;-80
2022/12/06 13:10:48;;;;;;;15.88;9.45;;;5.20;99.90;;;;;;4856257;29;20053;-81
2022/12/06 13:13:48;;;;;;;15.57;10.52;;;5.30;99.90;;;;;;4860376;29;20056;-80
2022/12/06 13:16:23;;;;;;;15.18;10.50;;;5.30;99.90;;;;;;4857893;29;20644;-81
2022/12/06 13:18:54;;;;;;;15.85;11.07;;;5.30;99.90;;;;;;4855022;29;20054;-81
2022/12/06 13:21:30;;;;;;;13.05;9.43;;;5.40;99.90;;;;;;4857761;29;20093;-81
2022/12/06 13:24:11;;;;;;;13.65;9.80;;;5.40;99.90;;;;;;4857935;29;20153;-82
2022/12/06 13:26:51;;;;;;;17.15;11.50;;;5.40;99.90;;;;;;4853867;29;20397;-81
2022/12/06 13:29:38;;;;;;;15.30;10.15;;;5.40;99.90;;;;;;4855991;29;20053;-82
2022/12/06 13:32:17;;;;;;;13.32;8.75;;;5.40;99.90;;;;;;4856481;29;20511;-81
2022/12/06 13:34:53;;;;;;;15.10;10.30;;;5.40;99.90;;;;;;4855843;29;20427;-81
2022/12/06 13:37:44;;;;;;;17.65;10.70;;;5.40;99.90;;;;;;4853177;29;20072;-81
2022/12/06 13:40:33;;;;;;;18.17;11.23;;;5.40;99.90;;;;;;4853380;29;20049;-80
2022/12/06 13:43:05;;;;;;;15.07;10.30;;;5.50;99.90;;;;;;4857919;29;20081;-81
2022/12/06 13:45:42;;;;;;;18.08;11.55;;;5.50;99.90;;;;;;4859894;29;20057;-78
2022/12/06 13:48:24;;;;;;;16.70;11.50;;;5.50;99.90;;;;;;4860021;29;20519;-81
2022/12/06 13:51:03;;;;;;;24.88;12.27;;;5.50;99.90;;;;;;4856200;29;20056;-81
2022/12/06 13:53:32;;;;;;;17.90;12.40;;;5.50;99.90;;;;;;4862967;29;20045;-81
2022/12/06 13:56:19;;;;;;;20.13;11.00;;;5.50;99.90;;;;;;4877275;29;20118;-82
2022/12/06 13:58:52;;;;;;;19.90;12.68;;;5.50;99.90;;;;;;4877626;29;20298;-83
2022/12/06 14:01:48;;;;;;;21.05;12.40;;;5.50;99.90;;;;;;4877695;29;20054;-83
2022/12/06 14:04:41;;;;;;;20.38;12.93;;;5.60;99.90;;;;;;4880586;29;20045;-78
2022/12/06 14:07:10;;;;;;;19.58;13.05;;;5.60;99.90;;;;;;4871631;29;20081;-80
2022/12/06 14:09:48;;;;;;;17.83;12.57;;;5.60;99.90;;;;;;4865431;29;20045;-80
2022/12/06 14:12:21;;;;;;;18.98;12.95;;;5.60;99.90;;;;;;4866268;29;20056;-80
2022/12/06 14:14:59;;;;;;;19.17;12.98;;;5.60;99.90;;;;;;4860417;29;20058;-81
2022/12/06 14:17:41;;;;;;;21.15;14.00;;;5.60;99.90;;;;;;4863016;29;20117;-79
2022/12/06 14:20:29;;;;;;;19.08;13.10;;;5.70;99.90;;;;;;4859561;29;20061;-81
2022/12/06 14:22:56;;;;;;;19.13;11.45;;;5.70;99.90;;;;;;4865114;29;20053;-82
2022/12/06 14:25:27;;;;;;;20.05;12.93;;;5.70;99.90;;;;;;4865765;29;20113;-81
2022/12/06 14:28:05;;;;;;;17.80;11.32;;;5.70;99.90;;;;;;4854996;29;20564;-81
2022/12/06 14:30:32;;;;;;;15.18;11.23;;;5.60;99.90;;;;;;4853629;29;20046;-80
2022/12/06 14:33:00;;;;;;;17.40;11.23;;;5.60;99.90;;;;;;4852996;29;20420;-81
2022/12/06 14:35:29;;;;;;;15.27;10.77;;;5.50;99.90;;;;;;4850902;29;20064;-80
2022/12/06 14:38:02;;;;;;;13.68;10.35;;;5.50;99.90;;;;;;4857616;29;20132;-80
2022/12/06 14:43:28;;;;;;;17.90;11.15;;;5.40;99.90;;;;;;4853396;29;20050;-81
2022/12/06 14:45:57;;;;;;;15.93;10.75;;;5.40;99.90;;;;;;4852602;29;20064;-81
2022/12/06 14:48:24;;;;;;;14.85;9.88;;;5.40;99.90;;;;;;4853951;29;20057;-81
2022/12/06 14:51:00;;;;;;;14.73;10.20;;;5.30;99.90;;;;;;4852813;29;20046;-80
2022/12/06 14:53:28;;;;;;;17.52;10.95;;;5.40;99.90;;;;;;4852316;29;20053;-81
2022/12/06 14:55:57;;;;;;;15.45;10.32;;;5.30;99.90;;;;;;4858919;29;20081;-80
2022/12/06 14:58:29;;;;;;;19.05;10.98;;;5.30;99.90;;;;;;4852139;29;20074;-80
2022/12/06 15:01:14;;;;;;;18.58;11.57;;;5.30;99.90;;;;;;4854969;29;20069;-81
2022/12/06 15:03:41;;;;;;;18.10;10.95;;;5.40;99.90;;;;;;4855598;29;20061;-81
2022/12/06 15:06:21;;;;;;;15.98;10.25;;;5.30;99.90;;;;;;4853820;29;20057;-80
2022/12/06 15:08:55;;;;;;;17.33;10.07;;;5.30;99.90;;;;;;4850673;29;20072;-81
2022/12/06 15:14:38;;;;;;;17.15;10.07;;;5.30;99.90;;;;;;4851128;29;20141;-81
2022/12/06 15:17:08;;;;;;;14.65;9.30;;;5.30;99.90;;;;;;4853864;29;20065;-81
2022/12/06 15:19:39;;;;;;;13.07;9.02;;;5.30;99.90;;;;;;4851770;29;20056;-81
2022/12/06 15:22:26;;;;;;;16.15;10.65;;;5.30;99.90;;;;;;4875349;24;20053;-80
2022/12/06 15:24:56;;;;;;;13.43;9.40;;;5.30;99.90;;;;;;4847320;29;20074;-81
2022/12/06 15:27:25;;;;;;;16.00;9.98;;;5.30;99.90;;;;;;4848536;29;20137;-80
2022/12/06 15:29:52;;;;;;;14.80;9.40;;;5.30;99.90;;;;;;4846609;29;20048;-80
2022/12/06 15:32:21;;;;;;;17.95;9.90;;;5.40;99.90;;;;;;4838838;29;20074;-80
2022/12/06 15:34:48;;;;;;;16.63;10.45;;;5.40;99.90;;;;;;4841440;29;20052;-80
2022/12/06 15:37:15;;;;;;;15.00;10.10;;;5.40;99.90;;;;;;4840006;29;20504;-80
2022/12/06 15:40:03;;;;;;;14.75;9.82;;;5.40;99.90;;;;;;4840509;29;20058;-80
2022/12/06 15:42:30;;;;;;;14.70;9.45;;;5.40;99.90;;;;;;4839758;29;20066;-80
2022/12/06 15:44:56;;;;;;;15.25;9.93;;;5.40;99.90;;;;;;4848295;29;20563;-81
2022/12/06 15:47:23;;;;;;;15.88;10.15;;;5.40;99.90;;;;;;4838124;29;20054;-80
2022/12/06 15:49:52;;;;;;;18.45;11.40;;;5.40;99.90;;;;;;4839609;29;20051;-80
2022/12/06 15:52:22;;;;;;;16.52;10.82;;;5.40;99.90;;;;;;4839620;29;20058;-80
2022/12/06 15:54:49;;;;;;;;;;;5.40;99.90;;;;;;4839315;29;20058;-80
2022/12/06 15:57:16;;;;;;;16.20;10.23;;;5.40;99.90;;;;;;4838061;29;20015;-80
2022/12/06 15:59:43;;;;;;;17.88;10.10;;;5.40;99.90;;;;;;4838272;29;20095;-80
2022/12/06 16:02:14;;;;;;;15.32;10.50;;;5.30;99.90;;;;;;4838398;29;20185;-80
2022/12/06 16:04:43;;;;;;;17.38;10.60;;;5.30;99.90;;;;;;4837962;29;20046;-81
2022/12/06 16:07:10;;;;;;;18.60;11.23;;;5.30;99.90;;;;;;4840221;29;20122;-80
2022/12/06 16:09:37;;;;;;;16.08;10.02;;;5.30;99.90;;;;;;4844800;29;20088;-80
2022/12/06 16:12:04;;;;;;;21.52;10.23;;;5.30;99.90;;;;;;4845561;29;20519;-81
2022/12/06 16:14:31;;;;;;;15.20;10.88;;;5.30;99.90;;;;;;4845583;29;20080;-80
2022/12/06 16:16:58;;;;;;;19.73;11.30;;;5.30;99.90;;;;;;4846491;29;20567;-78
2022/12/06 16:20:29;;;;;;;17.10;11.18;;;5.30;99.90;;;;;;4840690;29;20427;-80
2022/12/06 16:22:14;;;;;;;15.70;10.73;;;5.30;99.90;;;;;;4838977;29;20431;-80
2022/12/06 16:24:41;;;;;;;15.07;10.48;;;5.30;99.90;;;;;;4841282;29;20045;-80
2022/12/06 16:27:08;;;;;;;15.07;9.95;;;5.30;99.90;;;;;;4839956;29;20145;-80
2022/12/06 16:29:35;;;;;;;15.65;10.45;;;5.30;99.90;;;;;;4846323;29;20132;-80
2022/12/06 16:32:01;;;;;;;17.00;10.07;;;5.20;99.90;;;;;;4845415;29;20060;-80
2022/12/06 16:34:29;;;;;;;15.95;11.23;;;5.20;99.90;;;;;;4842462;29;20130;-80
2022/12/06 16:37:00;;;;;;;14.25;10.35;;;5.20;99.90;;;;;;4846653;29;20084;-78
2022/12/06 16:39:29;;;;;;;18.38;10.00;;;5.20;99.90;;;;;;4848789;29;20512;-80
2022/12/06 16:41:56;;;;;;;18.63;11.25;;;5.20;99.90;;;;;;4845429;29;20228;-80
2022/12/06 16:44:22;;;;;;;15.30;10.02;;;5.20;99.90;;;;;;4846618;29;20068;-80
2022/12/06 16:46:50;;;;;;;15.93;10.68;;;5.30;99.90;;;;;;4843569;29;20416;-79
2022/12/06 16:49:23;;;;;;;15.05;11.18;;;5.30;99.90;;;;;;4841845;29;20064;-80
2022/12/06 16:52:10;;;;;;;19.23;10.70;;;5.40;99.90;;;;;;4844468;29;20420;-80
2022/12/06 16:54:39;;;;;;;16.98;11.10;;;5.40;99.90;;;;;;4842610;29;20050;-80
2022/12/06 16:57:08;;;;;;;17.05;11.45;;;5.40;99.90;;;;;;4844535;29;20508;-79
2022/12/06 16:59:35;;;;;;;18.05;11.40;;;5.40;99.90;;;;;;4843864;29;20046;-80
2022/12/06 17:02:02;;;;;;;16.60;10.65;;;5.40;99.90;;;;;;4843666;29;20058;-80
2022/12/06 17:04:35;;;;;;;17.00;10.73;;;5.40;99.90;;;;;;4842380;29;20088;-81
2022/12/06 17:07:02;;;;;;;18.02;11.55;;;5.40;99.90;;;;;;4843795;29;20087;-80
2022/12/06 17:09:29;;;;;;;14.82;10.00;;;5.50;99.90;;;;;;4841967;29;20086;-80
2022/12/06 17:12:01;;;;;;;13.48;9.77;;;5.50;99.90;;;;;;4842037;29;20082;-81
2022/12/06 17:14:28;;;;;;;16.02;9.90;;;5.50;99.90;;;;;;4843717;29;20501;-80
2022/12/06 17:16:55;;;;;;;15.82;10.18;;;5.50;99.90;;;;;;4843248;29;20054;-80
2022/12/06 17:19:26;;;;;;;17.13;10.85;;;5.50;99.90;;;;;;4842879;29;20058;-81
2022/12/06 17:21:54;;;;;;;19.30;9.80;;;5.60;99.90;;;;;;4839782;29;20102;-80
2022/12/06 17:24:21;;;;;;;14.30;10.63;;;5.60;99.90;;;;;;4842236;29;20049;-80
2022/12/06 17:26:48;;;;;;;16.15;11.38;;;5.60;99.90;;;;;;4843276;29;20060;-82
2022/12/06 17:29:16;;;;;;;16.80;10.25;;;5.60;99.90;;;;;;4822379;29;20060;-81
2022/12/06 17:31:43;;;;;;;15.98;11.10;;;5.60;99.90;;;;;;4839128;29;20106;-81
2022/12/06 17:34:13;;;;;;;18.23;10.43;;;5.60;99.90;;;;;;4842030;29;20046;-79
2022/12/06 17:36:40;;;;;;;;;;;5.60;99.90;;;;;;4839427;29;20053;-79
2022/12/06 17:39:08;;;;;;;16.55;10.43;;;5.60;99.90;;;;;;4839964;29;19983;-79
2022/12/06 17:44:21;;;;;;;19.08;12.10;;;5.50;99.90;;;;;;4844295;29;20056;-78
2022/12/06 17:46:48;;;;;;;18.30;12.50;;;5.50;99.90;;;;;;4838464;29;20148;-79
2022/12/06 17:49:17;;;;;;;24.77;15.65;;;5.50;99.90;;;;;;4844268;29;20054;-80
2022/12/06 17:51:44;;;;;;;18.35;12.13;;;5.50;99.90;;;;;;4840272;29;20046;-79
2022/12/06 17:54:12;;;;;;;22.30;11.70;;;5.50;99.90;;;;;;4844153;29;20523;-79
2022/12/06 17:56:41;;;;;;;21.67;12.95;;;5.50;99.90;;;;;;4840318;29;20053;-80
2022/12/06 17:59:14;;;;;;;19.57;11.03;;;5.50;99.90;;;;;;4839886;29;20051;-79
2022/12/06 18:01:41;;;;;;;21.92;12.40;;;5.50;99.90;;;;;;4840985;29;20054;-80
2022/12/06 18:04:29;;;;;;;17.70;12.00;;;5.40;99.90;;;;;;4838953;29;20050;-80
2022/12/06 18:06:57;;;;;;;20.85;14.07;;;5.40;99.90;;;;;;4843931;29;20053;-79
2022/12/06 18:09:24;;;;;;;18.55;11.55;;;5.40;99.90;;;;;;4837452;29;20435;-79
2022/12/06 18:11:50;;;;;;;18.40;11.80;;;5.40;99.90;;;;;;4842216;29;20137;-79
2022/12/06 18:14:17;;;;;;;23.80;13.38;;;5.30;99.90;;;;;;4838420;29;20546;-79
2022/12/06 18:16:45;;;;;;;20.98;12.43;;;5.20;99.90;;;;;;4840130;29;20101;-79
2022/12/06 18:19:15;;;;;;;24.50;14.15;;;5.20;99.90;;;;;;4839297;29;20165;-79
2022/12/06 18:21:43;;;;;;;24.10;11.73;;;5.20;99.90;;;;;;4840570;29;20073;-79
2022/12/06 18:24:12;;;;;;;20.38;12.48;;;5.20;99.90;;;;;;4840595;29;20054;-79
2022/12/06 18:26:48;;;;;;;18.65;11.80;;;5.10;99.90;;;;;;4845422;29;20057;-79
2022/12/06 18:29:20;;;;;;;21.10;13.05;;;5.10;99.90;;;;;;4841307;29;20059;-80
2022/12/06 18:31:48;;;;;;;19.85;12.80;;;5.10;99.90;;;;;;4835663;29;20058;-78
2022/12/06 18:34:15;;;;;;;23.85;12.05;;;5.10;99.90;;;;;;4836620;29;20086;-78
2022/12/06 18:36:42;;;;;;;18.73;12.10;;;5.10;99.90;;;;;;4836191;29;20519;-78
2022/12/06 18:39:13;;;;;;;23.48;12.63;;;5.00;99.90;;;;;;4837135;29;20140;-78
2022/12/06 18:41:45;;;;;;;20.52;12.63;;;5.00;99.90;;;;;;4839059;29;20050;-80
2022/12/06 18:44:12;;;;;;;;;;;4.90;99.90;;;;;;4841126;29;20054;-79
2022/12/06 18:46:40;;;;;;;14.30;9.23;;;4.90;99.90;;;;;;4841259;29;20047;-79
2022/12/06 18:49:10;;;;;;;22.50;12.52;;;4.80;99.90;;;;;;4839267;29;20472;-79
2022/12/06 18:51:37;;;;;;;19.70;13.35;;;4.80;99.90;;;;;;4842339;29;20045;-79
2022/12/06 18:54:05;;;;;;;20.67;12.30;;;4.80;99.90;;;;;;4840843;29;20050;-79
2022/12/06 18:56:33;;;;;;;19.95;12.18;;;4.70;99.90;;;;;;4840967;29;20485;-79
2022/12/06 18:59:03;;;;;;;23.55;12.02;;;4.70;99.90;;;;;;4837277;29;20053;-77
2022/12/06 19:01:35;;;;;;;16.48;10.07;;;4.70;99.90;;;;;;4839610;29;20057;-78
2022/12/06 19:04:04;;;;;;;19.33;10.32;;;4.60;99.90;;;;;;4842805;29;20160;-79
2022/12/06 19:06:33;;;;;;;19.40;12.05;;;4.60;99.90;;;;;;4842184;29;20050;-77
2022/12/06 19:09:05;;;;;;;19.45;11.80;;;4.60;99.90;;;;;;4841962;29;20452;-78
2022/12/06 19:11:36;;;;;;;17.52;11.57;;;4.50;99.90;;;;;;4840227;29;20056;-78
2022/12/06 19:14:04;;;;;;;19.20;11.95;;;4.50;99.90;;;;;;4839942;29;20496;-78
2022/12/06 19:16:42;;;;;;;21.55;11.50;;;4.50;99.90;;;;;;4837008;29;20056;-78
2022/12/06 19:19:12;;;;;;;20.70;11.35;;;4.50;99.90;;;;;;4841243;29;20073;-79
2022/12/06 19:21:43;;;;;;;18.10;11.05;;;4.50;99.90;;;;;;4846140;29;20671;-78
2022/12/06 19:24:12;;;;;;;20.70;11.25;;;4.50;99.90;;;;;;4842651;29;20060;-78
2022/12/06 19:26:39;;;;;;;19.10;11.48;;;4.50;99.90;;;;;;4837200;29;20417;-79
2022/12/06 19:29:06;;;;;;;22.65;12.18;;;4.50;99.90;;;;;;4851931;29;20092;-79
2022/12/06 19:31:33;;;;;;;18.10;10.80;;;4.50;99.90;;;;;;4848636;29;20058;-78
2022/12/06 19:34:00;;;;;;;17.83;11.18;;;4.40;99.90;;;;;;4858511;29;20037;-79
2022/12/06 19:36:28;;;;;;;18.98;11.68;;;4.40;99.90;;;;;;4862326;29;20101;-80
2022/12/06 19:39:01;;;;;;;18.05;10.77;;;4.40;99.90;;;;;;4854657;29;20121;-78
2022/12/06 19:41:29;;;;;;;19.38;11.18;;;4.40;99.90;;;;;;4843225;29;20425;-79
2022/12/06 19:44:14;;;;;;;19.30;10.85;;;4.40;99.90;;;;;;4837788;29;20052;-78
2022/12/06 19:46:43;;;;;;;18.15;10.45;;;4.40;99.90;;;;;;4839049;29;20049;-78
2022/12/06 19:49:11;;;;;;;16.50;9.80;;;4.40;99.90;;;;;;4841208;29;20046;-79
2022/12/06 19:51:42;;;;;;;17.52;11.20;;;4.30;99.90;;;;;;4840202;29;20050;-78
2022/12/06 19:54:12;;;;;;;18.17;11.30;;;4.30;99.90;;;;;;4840870;29;20397;-78
2022/12/06 19:56:39;;;;;;;;;;;4.30;99.90;;;;;;4840194;29;20065;-80
2022/12/06 19:59:12;;;;;;;21.80;11.63;;;4.30;99.90;;;;;;4841697;29;19928;-79
2022/12/06 20:01:41;;;;;;;19.73;10.52;;;4.30;99.90;;;;;;4836556;29;20046;-79
2022/12/06 20:04:12;;;;;;;24.05;10.73;;;4.30;99.90;;;;;;4835930;29;20058;-79
2022/12/06 20:06:38;;;;;;;17.10;10.32;;;4.30;99.90;;;;;;4839271;29;20058;-78
2022/12/06 20:09:05;;;;;;;21.23;12.10;;;4.30;99.90;;;;;;4839971;29;20431;-78
2022/12/06 20:14:20;;;;;;;22.35;11.32;;;4.30;99.90;;;;;;4842316;29;20084;-78
2022/12/06 20:16:47;;;;;;;20.27;11.98;;;4.30;99.90;;;;;;4847857;29;20570;-79
2022/12/06 20:19:15;;;;;;;17.70;11.52;;;4.40;99.90;;;;;;4839488;29;20058;-80
2022/12/06 20:21:43;;;;;;;18.23;11.25;;;4.40;99.90;;;;;;4842338;29;20068;-78
2022/12/06 20:24:11;;;;;;;17.70;10.55;;;4.40;99.90;;;;;;4833606;29;20558;-79
2022/12/06 20:26:38;;;;;;;22.13;11.23;;;4.40;99.90;;;;;;4842457;29;20052;-79
2022/12/06 20:29:05;;;;;;;18.20;11.68;;;4.40;99.90;;;;;;4841183;29;20050;-81
2022/12/06 20:31:32;;;;;;;21.25;10.95;;;4.40;99.90;;;;;;4835833;29;20144;-81
2022/12/06 20:34:01;;;;;;;20.05;10.93;;;4.40;99.90;;;;;;4839278;29;20150;-80
2022/12/06 20:36:30;;;;;;;19.80;11.63;;;4.40;99.90;;;;;;4841878;29;20054;-79
2022/12/06 20:38:57;;;;;;;19.17;11.07;;;4.40;99.90;;;;;;4841241;29;20058;-80
2022/12/06 20:41:25;;;;;;;17.65;11.93;;;4.40;99.90;;;;;;4845599;29;20054;-79
2022/12/06 20:43:52;;;;;;;18.42;10.60;;;4.40;99.90;;;;;;4845621;29;20057;-78
2022/12/06 20:46:22;;;;;;;19.50;11.23;;;4.40;99.90;;;;;;4841401;29;20069;-79
2022/12/06 20:48:49;;;;;;;21.33;12.50;;;4.40;99.90;;;;;;4840925;29;20054;-79
2022/12/06 20:51:21;;;;;;;19.38;11.10;;;4.40;99.90;;;;;;4838149;29;20109;-79
2022/12/06 20:53:49;;;;;;;17.95;11.18;;;4.40;99.90;;;;;;4857425;29;20054;-80
2022/12/06 20:56:19;;;;;;;18.80;11.63;;;4.40;99.90;;;;;;4843136;29;20060;-79
2022/12/06 20:58:48;;;;;;;20.75;12.32;;;4.40;99.90;;;;;;4841913;29;20435;-80
2022/12/06 21:01:18;;;;;;;19.55;10.35;;;4.40;99.90;;;;;;4843851;29;20118;-80
2022/12/06 21:03:46;;;;;;;17.95;11.35;;;4.40;99.90;;;;;;4841993;29;20058;-80
2022/12/06 21:06:13;;;;;;;16.83;11.43;;;4.40;99.90;;;;;;4842798;29;20058;-79
2022/12/06 21:08:41;;;;;;;18.63;11.75;;;4.40;99.90;;;;;;4841919;29;20050;-80